Time;durP1;ratioP1;P1;durP2;ratioP2;P2;SDS_P1;SDS_P2;PMS_P1;PMS_P2;Temp;Humidity;BMP_temperature;BMP_pressure;BME280_temperature;BME280_humidity;BME280_pressure;Samples;Min_cycle;Max_cycle;Signal;HPM_P1;HPM_P2
2023/06/17 00:00:23;;;;;;;3.77;3.23;;;15.70;99.90;;;;;;5004373;28;20225;-85
2023/06/17 00:02:49;;;;;;;7.20;3.30;;;15.60;99.90;;;;;;4994546;28;20445;-83
2023/06/17 00:05:14;;;;;;;5.80;3.60;;;15.50;99.90;;;;;;5006036;28;20445;-83
2023/06/17 00:07:41;;;;;;;4.03;3.43;;;15.50;99.90;;;;;;5003185;28;20477;-84
2023/06/17 00:10:07;;;;;;;5.80;4.43;;;15.50;99.90;;;;;;5007568;28;20188;-87
2023/06/17 00:12:33;;;;;;;7.23;3.77;;;15.50;99.90;;;;;;5016682;28;20441;-86
2023/06/17 00:15:01;;;;;;;6.53;3.27;;;15.50;99.90;;;;;;5014851;28;20441;-85
2023/06/17 00:17:29;;;;;;;5.83;4.00;;;15.50;99.90;;;;;;5012499;28;20492;-87
2023/06/17 00:19:56;;;;;;;5.90;3.80;;;15.40;99.90;;;;;;4997186;28;20867;-86
2023/06/17 00:22:25;;;;;;;5.73;4.23;;;15.30;99.90;;;;;;5014991;28;20437;-87
2023/06/17 00:24:51;;;;;;;4.80;3.33;;;15.20;99.90;;;;;;4999370;28;20437;-86
2023/06/17 00:27:17;;;;;;;3.80;3.37;;;15.20;99.90;;;;;;5015605;28;20471;-88
2023/06/17 00:29:42;;;;;;;7.50;5.27;;;15.20;99.90;;;;;;5013241;28;20472;-87
2023/06/17 00:32:08;;;;;;;7.20;5.07;;;15.30;99.90;;;;;;4995628;28;20201;-88
2023/06/17 00:34:34;;;;;;;7.17;5.20;;;15.30;99.90;;;;;;4995148;28;20861;-87
2023/06/17 00:36:59;;;;;;;7.00;4.73;;;14.90;99.90;;;;;;4998125;28;20429;-86
2023/06/17 00:39:25;;;;;;;9.07;5.93;;;14.90;99.90;;;;;;5004772;28;20185;-86
2023/06/17 00:41:50;;;;;;;6.30;5.00;;;14.70;99.90;;;;;;4999195;28;20186;-86
2023/06/17 00:44:16;;;;;;;7.80;5.50;;;14.60;99.90;;;;;;5000051;28;20175;-87
2023/06/17 00:46:46;;;;;;;5.70;4.33;;;14.60;99.90;;;;;;5014670;28;20267;-88
2023/06/17 00:49:12;;;;;;;9.77;5.63;;;14.50;99.90;;;;;;5016452;28;20269;-87
2023/06/17 00:51:38;;;;;;;6.53;5.10;;;14.40;99.90;;;;;;4998118;28;20985;-87
2023/06/17 00:54:05;;;;;;;13.33;7.07;;;14.40;99.90;;;;;;4998284;28;20420;-86
2023/06/17 00:56:33;;;;;;;7.27;4.50;;;14.40;99.90;;;;;;5015700;28;20440;-88
2023/06/17 00:59:01;;;;;;;5.90;3.92;;;14.30;99.90;;;;;;5015180;28;21001;-87
2023/06/17 01:01:29;;;;;;;8.13;4.77;;;14.20;99.90;;;;;;5009908;28;20221;-86
2023/06/17 01:03:55;;;;;;;7.20;4.65;;;14.20;99.90;;;;;;5009923;28;20463;-85
2023/06/17 01:06:52;;;;;;;5.05;4.15;;;14.10;99.90;;;;;;4988783;28;20731;-86
2023/06/17 01:09:22;;;;;;;5.17;4.50;;;14.00;99.90;;;;;;4998736;28;20241;-85
2023/06/17 01:11:49;;;;;;;5.30;4.40;;;13.90;99.90;;;;;;5011168;28;20483;-85
2023/06/17 01:14:15;;;;;;;6.10;4.03;;;13.90;99.90;;;;;;5013895;28;20179;-85
2023/06/17 01:16:42;;;;;;;7.00;4.80;;;13.80;99.90;;;;;;5016262;28;20190;-86
2023/06/17 01:19:18;;;;;;;5.57;4.32;;;13.80;99.90;;;;;;5016976;28;20213;-88
2023/06/17 01:21:51;;;;;;;7.93;4.32;;;13.70;99.90;;;;;;4997813;28;20199;-87
2023/06/17 01:24:33;;;;;;;6.00;4.10;;;13.60;99.90;;;;;;4998570;28;20183;-87
2023/06/17 01:27:02;;;;;;;6.25;3.60;;;13.60;99.90;;;;;;4998964;28;20261;-86
2023/06/17 01:29:32;;;;;;;7.00;4.15;;;13.60;99.90;;;;;;4999214;28;20186;-87
2023/06/17 01:32:00;;;;;;;5.22;4.40;;;13.50;99.90;;;;;;4996437;28;20195;-87
2023/06/17 01:34:37;;;;;;;5.03;4.30;;;13.40;99.90;;;;;;5013856;28;20213;-85
2023/06/17 01:37:09;;;;;;;7.10;4.78;;;13.20;99.90;;;;;;4993766;28;20244;-85
2023/06/17 01:39:37;;;;;;;10.07;5.10;;;13.20;99.90;;;;;;5012575;28;20184;-85
2023/06/17 01:42:09;;;;;;;4.75;3.58;;;13.20;99.90;;;;;;5014235;28;20186;-86
2023/06/17 01:44:36;;;;;;;7.63;4.40;;;13.20;99.90;;;;;;4997065;28;20191;-86
2023/06/17 01:47:02;;;;;;;6.40;4.88;;;13.30;99.90;;;;;;5010055;28;20221;-86
2023/06/17 01:49:27;;;;;;;6.38;4.65;;;13.30;99.90;;;;;;5009686;28;20250;-87
2023/06/17 01:51:53;;;;;;;4.40;3.80;;;13.20;99.90;;;;;;5013819;28;20227;-86
2023/06/17 01:54:18;;;;;;;7.27;4.17;;;13.20;99.90;;;;;;5013571;28;20205;-87
2023/06/17 01:56:44;;;;;;;7.90;3.83;;;13.10;99.90;;;;;;4995723;28;20201;-86
2023/06/17 01:59:10;;;;;;;6.30;4.10;;;13.20;99.90;;;;;;5009421;28;20214;-85
2023/06/17 02:01:35;;;;;;;4.57;3.97;;;13.20;99.90;;;;;;5005869;28;20198;-85
2023/06/17 02:04:01;;;;;;;6.50;4.30;;;13.20;99.90;;;;;;4993595;28;20186;-86
2023/06/17 02:06:26;;;;;;;5.53;3.50;;;13.20;99.90;;;;;;4991123;28;20216;-86
2023/06/17 02:08:53;;;;;;;7.83;4.40;;;13.20;99.90;;;;;;4997779;28;20257;-85
2023/06/17 02:11:18;;;;;;;15.13;4.73;;;13.20;99.90;;;;;;5000238;28;20209;-85
2023/06/17 02:13:44;;;;;;;8.43;4.73;;;13.20;99.90;;;;;;4995499;28;20469;-85
2023/06/17 02:16:10;;;;;;;6.60;4.60;;;13.20;99.90;;;;;;4994756;28;20190;-86
2023/06/17 02:18:35;;;;;;;4.83;3.60;;;13.10;99.90;;;;;;4994036;28;20216;-86
2023/06/17 02:21:02;;;;;;;5.27;4.30;;;13.10;99.90;;;;;;4996030;28;20197;-86
2023/06/17 02:23:28;;;;;;;5.70;3.70;;;13.10;99.90;;;;;;5009110;28;20178;-86
2023/06/17 02:25:55;;;;;;;5.53;4.03;;;13.20;99.90;;;;;;5014870;28;20193;-86
2023/06/17 02:28:20;;;;;;;5.72;4.18;;;13.20;99.90;;;;;;5010024;28;20214;-86
2023/06/17 02:30:46;;;;;;;5.70;4.30;;;13.20;99.90;;;;;;5010756;28;20182;-86
2023/06/17 02:33:12;;;;;;;4.13;3.63;;;13.20;99.90;;;;;;5010624;28;20244;-87
2023/06/17 02:35:38;;;;;;;5.43;3.80;;;13.20;99.90;;;;;;4989954;28;20209;-87
2023/06/17 02:38:03;;;;;;;5.67;4.40;;;13.20;99.90;;;;;;4994093;28;20206;-86
2023/06/17 02:40:29;;;;;;;5.73;3.83;;;13.10;99.90;;;;;;4995585;28;22068;-85
2023/06/17 02:42:55;;;;;;;7.97;4.20;;;13.00;99.90;;;;;;5019796;28;20182;-87
2023/06/17 02:45:20;;;;;;;5.00;3.93;;;14.10;99.90;;;;;;5004954;28;20189;-86
2023/06/17 02:47:46;;;;;;;4.33;3.90;;;12.80;99.90;;;;;;5005360;28;20214;-85
2023/06/17 02:50:11;;;;;;;6.43;4.13;;;12.80;99.90;;;;;;5022702;28;20167;-86
2023/06/17 02:52:37;;;;;;;6.27;4.23;;;12.80;99.90;;;;;;5008267;28;20181;-86
2023/06/17 02:55:03;;;;;;;7.93;4.20;;;12.90;99.90;;;;;;5026512;28;20167;-87
2023/06/17 02:57:29;;;;;;;5.20;3.93;;;13.00;99.90;;;;;;5007712;28;20468;-86
2023/06/17 02:59:54;;;;;;;6.53;4.47;;;13.00;99.90;;;;;;5008934;28;20460;-86
2023/06/17 03:02:22;;;;;;;5.73;4.00;;;13.00;99.90;;;;;;5008500;28;20209;-86
2023/06/17 03:04:48;;;;;;;8.18;4.78;;;13.00;99.90;;;;;;5023703;28;20208;-87
2023/06/17 03:07:15;;;;;;;5.17;3.77;;;13.10;99.90;;;;;;5004495;28;20310;-86
2023/06/17 03:09:41;;;;;;;8.05;4.75;;;13.10;99.90;;;;;;5002966;28;20495;-86
2023/06/17 03:12:07;;;;;;;6.07;5.23;;;13.10;99.90;;;;;;5001228;28;20195;-86
2023/06/17 03:14:33;;;;;;;7.80;4.50;;;13.10;99.90;;;;;;5002867;28;20182;-86
2023/06/17 03:16:59;;;;;;;7.13;4.50;;;13.10;99.90;;;;;;5002045;28;20449;-86
2023/06/17 03:19:29;;;;;;;7.73;4.80;;;13.00;99.90;;;;;;5020258;28;20197;-85
2023/06/17 03:21:55;;;;;;;7.72;4.57;;;13.10;99.90;;;;;;5000636;28;20429;-85
2023/06/17 03:24:21;;;;;;;6.00;4.83;;;13.10;99.90;;;;;;5003596;28;20717;-85
2023/06/17 03:26:46;;;;;;;7.87;5.87;;;13.20;99.90;;;;;;5003018;28;20485;-87
2023/06/17 03:29:12;;;;;;;7.10;4.83;;;13.20;99.90;;;;;;5018590;28;20242;-85
2023/06/17 03:31:37;;;;;;;5.43;4.40;;;13.20;99.90;;;;;;5015504;28;20190;-84
2023/06/17 03:34:03;;;;;;;6.13;4.77;;;13.10;99.90;;;;;;5000779;28;20190;-85
2023/06/17 03:36:29;;;;;;;6.13;4.73;;;13.10;99.90;;;;;;4999456;28;20640;-84
2023/06/17 03:38:56;;;;;;;7.13;4.50;;;13.10;99.90;;;;;;5002199;28;20228;-85
2023/06/17 03:41:24;;;;;;;9.07;5.28;;;15.60;99.90;;;;;;4999712;28;20449;-86
2023/06/17 03:43:50;;;;;;;10.23;4.40;;;13.20;99.90;;;;;;5012960;28;20190;-86
2023/06/17 03:46:16;;;;;;;8.00;5.17;;;13.20;99.90;;;;;;5009232;28;20221;-86
2023/06/17 03:48:42;;;;;;;7.77;4.77;;;13.20;99.90;;;;;;5012955;28;20209;-85
2023/06/17 03:51:07;;;;;;;8.00;5.53;;;13.20;99.90;;;;;;5008386;28;20201;-85
2023/06/17 03:53:33;;;;;;;8.53;5.37;;;13.50;99.90;;;;;;4991135;28;20286;-86
2023/06/17 03:55:58;;;;;;;7.40;5.80;;;13.40;99.90;;;;;;5008472;28;20201;-86
2023/06/17 03:58:24;;;;;;;7.20;6.40;;;13.60;99.90;;;;;;5002110;28;20251;-86
2023/06/17 04:00:50;;;;;;;7.13;5.47;;;13.80;99.90;;;;;;5022664;28;20189;-85
2023/06/17 04:03:19;;;;;;;6.75;5.28;;;13.90;99.90;;;;;;5005437;28;20190;-86
2023/06/17 04:05:44;;;;;;;8.88;5.70;;;14.10;99.90;;;;;;5006943;28;20198;-85
2023/06/17 04:08:10;;;;;;;6.40;4.60;;;14.20;99.90;;;;;;5015848;28;20844;-87
2023/06/17 04:10:36;;;;;;;7.20;5.00;;;14.50;99.90;;;;;;5001979;28;20679;-87
2023/06/17 04:13:02;;;;;;;7.07;5.80;;;14.80;99.90;;;;;;5005246;28;20924;-86
2023/06/17 04:15:27;;;;;;;7.03;5.00;;;15.00;99.90;;;;;;5023317;28;20194;-86
2023/06/17 04:17:53;;;;;;;8.43;5.67;;;15.50;99.90;;;;;;5022871;28;20203;-86
2023/06/17 04:20:19;;;;;;;5.60;4.60;;;18.30;99.90;;;;;;5020457;28;20198;-86
2023/06/17 04:22:45;;;;;;;5.80;4.73;;;18.30;99.90;;;;;;5002336;28;20460;-85
2023/06/17 04:25:12;;;;;;;6.17;4.77;;;19.60;99.90;;;;;;5020184;28;20432;-87
2023/06/17 04:27:38;;;;;;;7.57;5.00;;;20.90;99.90;;;;;;5021687;28;21125;-83
2023/06/17 04:30:08;;;;;;;5.20;4.70;;;22.30;99.90;;;;;;5021677;28;20421;-86
2023/06/17 04:32:35;;;;;;;6.10;4.30;;;23.80;99.90;;;;;;5018715;28;20940;-87
2023/06/17 04:35:03;;;;;;;9.57;4.63;;;25.20;99.90;;;;;;5018954;28;20998;-85
2023/06/17 04:37:32;;;;;;;9.53;6.67;;;25.80;94.40;;;;;;5020050;28;20461;-84
2023/06/17 04:39:58;;;;;;;15.53;5.80;;;25.60;92.70;;;;;;5020100;28;20444;-85
2023/06/17 04:42:25;;;;;;;11.30;7.00;;;25.40;91.20;;;;;;5017501;28;20421;-84
2023/06/17 04:44:51;;;;;;;8.80;7.10;;;;;;;;;;5008539;28;20489;-85
2023/06/17 04:47:19;;;;;;;7.70;6.20;;;27.80;80.10;;;;;;5000617;28;20483;-84
2023/06/17 04:49:47;;;;;;;7.47;6.50;;;27.80;79.50;;;;;;5020002;28;20470;-83
2023/06/17 04:52:13;;;;;;;8.97;7.40;;;28.70;76.60;;;;;;5022180;28;20451;-83
2023/06/17 04:54:39;;;;;;;7.60;5.63;;;30.00;71.60;;;;;;5022985;28;20503;-82
2023/06/17 04:57:06;;;;;;;9.00;6.93;;;32.50;58.70;;;;;;5004551;28;20429;-87
2023/06/17 04:59:31;;;;;;;8.13;5.90;;;32.40;58.80;;;;;;5005035;28;20425;-87
2023/06/17 05:01:57;;;;;;;7.83;7.07;;;32.30;55.40;;;;;;5018428;28;20497;-86
2023/06/17 05:04:22;;;;;;;9.60;7.50;;;32.10;54.30;;;;;;5018162;28;20679;-86
2023/06/17 05:06:48;;;;;;;9.20;8.23;;;32.30;54.70;;;;;;5016654;28;20214;-86
2023/06/17 05:09:14;;;;;;;8.80;7.27;;;32.90;52.60;;;;;;5016629;28;20212;-86
2023/06/17 05:11:40;;;;;;;7.97;7.20;;;32.60;52.10;;;;;;5018742;28;20197;-85
2023/06/17 05:14:06;;;;;;;9.67;8.53;;;33.10;51.50;;;;;;5019626;28;20182;-86
2023/06/17 05:16:32;;;;;;;8.63;7.30;;;;;;;;;;5020192;28;20418;-85
2023/06/17 05:18:58;;;;;;;9.47;7.60;;;32.80;50.40;;;;;;5019654;28;20222;-86
2023/06/17 05:21:23;;;;;;;9.57;7.80;;;32.80;49.60;;;;;;5017491;28;20430;-86
2023/06/17 05:23:50;;;;;;;8.60;7.73;;;32.80;50.10;;;;;;5018716;28;20186;-87
2023/06/17 05:26:17;;;;;;;8.60;7.80;;;33.30;50.40;;;;;;5002380;28;20179;-85
2023/06/17 05:28:42;;;;;;;9.57;7.93;;;31.20;51.80;;;;;;5003058;28;20473;-85
2023/06/17 05:31:09;;;;;;;8.87;8.00;;;30.90;52.80;;;;;;5019972;28;20498;-87
2023/06/17 05:33:34;;;;;;;8.80;7.90;;;30.10;53.10;;;;;;5001850;28;20183;-86
2023/06/17 05:36:00;;;;;;;8.43;7.50;;;30.80;53.80;;;;;;5020504;28;20459;-86
2023/06/17 05:38:27;;;;;;;9.57;8.47;;;31.20;53.40;;;;;;5005317;28;20198;-86
2023/06/17 05:40:53;;;;;;;8.63;7.73;;;33.00;51.80;;;;;;5020617;28;20185;-86
2023/06/17 05:43:18;;;;;;;9.33;8.37;;;34.60;49.30;;;;;;5007297;28;20443;-86
2023/06/17 05:45:44;;;;;;;15.23;8.77;;;;;;;;;;5019646;28;20187;-87
2023/06/17 05:48:10;;;;;;;10.53;9.53;;;37.70;44.50;;;;;;5003199;28;20245;-86
2023/06/17 05:50:38;;;;;;;13.30;10.30;;;37.70;41.70;;;;;;5020316;28;20443;-86
2023/06/17 05:53:04;;;;;;;9.77;8.77;;;;;;;;;;5002216;28;20176;-86
2023/06/17 05:55:30;;;;;;;11.33;10.23;;;;;;;;;;5014812;28;20439;-86
2023/06/17 05:57:55;;;;;;;15.03;10.60;;;36.00;42.10;;;;;;5016455;28;20461;-87
2023/06/17 06:00:22;;;;;;;10.57;9.57;;;36.50;43.10;;;;;;5017912;28;20453;-87
2023/06/17 06:02:48;;;;;;;12.00;9.37;;;37.60;42.80;;;;;;4996202;28;20385;-87
2023/06/17 06:05:14;;;;;;;12.50;11.40;;;;;;;;;;5011569;28;20444;-86
2023/06/17 06:07:41;;;;;;;11.27;10.17;;;;;;;;;;5009070;28;21371;-85
2023/06/17 06:10:07;;;;;;;12.07;10.73;;;38.90;45.70;;;;;;4993197;28;20444;-87
2023/06/17 06:12:33;;;;;;;11.63;10.57;;;38.90;40.40;;;;;;5015342;28;20458;-88
2023/06/17 06:14:59;;;;;;;10.90;9.90;;;;;;;;;;5014116;28;20480;-86
2023/06/17 06:17:25;;;;;;;11.80;10.77;;;;;;;;;;4991772;28;21327;-88
2023/06/17 06:19:51;;;;;;;11.47;10.47;;;;;;;;;;4997070;28;20523;-87
2023/06/17 06:22:18;;;;;;;11.30;10.37;;;39.90;36.40;;;;;;4974948;28;20444;-87
2023/06/17 06:24:44;;;;;;;10.70;9.70;;;;;;;;;;4996676;28;20457;-87
2023/06/17 06:27:10;;;;;;;11.87;10.77;;;;;;;;;;4997537;28;20461;-87
2023/06/17 06:29:36;;;;;;;11.77;10.77;;;;;;;;;;5001657;28;20452;-87
2023/06/17 06:32:02;;;;;;;12.07;11.10;;;40.30;35.00;;;;;;4998851;28;20496;-88
2023/06/17 06:34:28;;;;;;;11.77;10.67;;;39.20;35.10;;;;;;4991913;28;20444;-88
2023/06/17 06:36:56;;;;;;;12.13;10.67;;;;;;;;;;4994055;28;21033;-86
2023/06/17 06:39:22;;;;;;;11.93;10.90;;;;;;;;;;5007219;28;20964;-85
2023/06/17 06:41:48;;;;;;;11.20;10.20;;;;;;;;;;5000561;28;20436;-87
2023/06/17 06:44:13;;;;;;;10.53;9.53;;;36.80;35.60;;;;;;5007915;28;20444;-87
2023/06/17 06:46:39;;;;;;;11.27;10.37;;;;;;;;;;4985203;28;20481;-87
2023/06/17 06:49:05;;;;;;;9.77;9.00;;;;;;;;;;4996042;28;20316;-86
2023/06/17 06:51:32;;;;;;;9.10;8.33;;;38.10;37.10;;;;;;4998602;28;20833;-87
2023/06/17 06:53:58;;;;;;;9.20;8.43;;;38.10;37.60;;;;;;5000907;28;21302;-88
2023/06/17 06:56:24;;;;;;;9.47;8.73;;;38.20;35.20;;;;;;4982827;28;20441;-87
2023/06/17 06:58:49;;;;;;;9.67;8.80;;;38.20;35.80;;;;;;4976785;28;20213;-87
2023/06/17 07:01:15;;;;;;;9.43;8.63;;;38.00;36.80;;;;;;5003918;28;20456;-86
2023/06/17 07:03:41;;;;;;;9.43;8.50;;;38.50;36.70;;;;;;5006331;28;20196;-87
2023/06/17 07:06:07;;;;;;;10.23;9.50;;;;;;;;;;4986726;28;20228;-87
2023/06/17 07:08:33;;;;;;;9.37;8.60;;;;;;;;;;4966917;28;20540;-88
2023/06/17 07:11:00;;;;;;;10.77;9.47;;;42.30;37.70;;;;;;5002729;28;20459;-88
2023/06/17 07:13:26;;;;;;;9.87;9.07;;;41.10;39.10;;;;;;4990832;28;20437;-88
2023/06/17 07:15:52;;;;;;;10.60;9.60;;;39.60;38.00;;;;;;5007283;28;20480;-87
2023/06/17 07:18:18;;;;;;;11.03;10.00;;;;;;;;;;4992229;28;20499;-87
2023/06/17 07:20:43;;;;;;;11.73;10.83;;;40.30;39.60;;;;;;4990487;28;20185;-87
2023/06/17 07:23:09;;;;;;;11.03;9.50;;;;;;;;;;5011056;28;20193;-88
2023/06/17 07:25:36;;;;;;;11.17;10.10;;;;;;;;;;5009073;28;20597;-88
2023/06/17 07:28:02;;;;;;;9.73;8.93;;;;;;;;;;4993662;28;20210;-88
2023/06/17 07:30:29;;;;;;;10.97;9.97;;;;;;;;;;5007198;28;20431;-87
2023/06/17 07:32:55;;;;;;;10.53;9.63;;;;;;;;;;5011114;28;20428;-87
2023/06/17 07:35:21;;;;;;;11.13;10.33;;;;;;;;;;4990305;28;20457;-87
2023/06/17 07:37:47;;;;;;;10.00;9.33;;;;;;;;;;5007195;28;20453;-87
2023/06/17 07:40:13;;;;;;;11.23;10.33;;;;;;;;;;4992970;28;21009;-88
2023/06/17 07:42:40;;;;;;;10.17;9.43;;;;;;;;;;4993209;28;20516;-88
2023/06/17 07:45:06;;;;;;;10.57;9.57;;;42.50;37.30;;;;;;4993023;28;20433;-87
2023/06/17 07:47:32;;;;;;;10.90;10.00;;;;;;;;;;5011953;28;20487;-87
2023/06/17 07:49:57;;;;;;;12.10;10.87;;;44.10;35.70;;;;;;4992832;28;20429;-87
2023/06/17 07:52:23;;;;;;;10.53;9.73;;;;;;;;;;4992715;28;20659;-87
2023/06/17 07:54:51;;;;;;;11.40;10.50;;;;;;;;;;5008605;28;20186;-87
2023/06/17 07:57:17;;;;;;;10.43;9.73;;;;;;;;;;4984921;28;20477;-87
2023/06/17 07:59:43;;;;;;;10.33;9.43;;;37.30;32.80;;;;;;4997316;28;20436;-87
2023/06/17 08:02:08;;;;;;;9.90;9.20;;;37.30;33.70;;;;;;4975332;28;20671;-86
2023/06/17 08:04:34;;;;;;;10.00;9.20;;;37.80;34.10;;;;;;4990391;28;20203;-86
2023/06/17 08:07:01;;;;;;;11.47;10.67;;;;;;;;;;4994702;28;20699;-87
2023/06/17 08:09:26;;;;;;;9.53;8.73;;;37.40;34.00;;;;;;4996118;28;20190;-85
2023/06/17 08:11:52;;;;;;;9.53;8.73;;;;;;;;;;4992928;28;20444;-88
2023/06/17 08:14:18;;;;;;;10.07;9.30;;;;;;;;;;4977671;28;20186;-87
2023/06/17 08:16:44;;;;;;;10.00;9.17;;;;;;;;;;4989733;28;20448;-87
2023/06/17 08:19:10;;;;;;;9.80;9.07;;;;;;;;;;4998684;28;20461;-87
2023/06/17 08:21:37;;;;;;;10.00;9.40;;;40.80;30.80;;;;;;4984371;28;20696;-88
2023/06/17 08:24:22;;;;;;;10.53;9.63;;;42.30;29.20;;;;;;4984697;28;20186;-88
2023/06/17 08:26:49;;;;;;;11.10;10.20;;;42.70;30.80;;;;;;4996815;28;20460;-88
2023/06/17 08:29:15;;;;;;;11.10;10.10;;;43.40;28.10;;;;;;4970473;28;20540;-88
2023/06/17 08:31:45;;;;;;;9.90;9.30;;;43.40;34.20;;;;;;4973121;28;20445;-87
2023/06/17 08:34:12;;;;;;;11.20;10.30;;;44.60;27.00;;;;;;4994899;28;20440;-88
2023/06/17 08:36:39;;;;;;;11.27;10.17;;;42.70;28.00;;;;;;4981227;28;22499;-88
2023/06/17 08:39:06;;;;;;;15.73;10.90;;;;;;;;;;4996165;28;20483;-89
2023/06/17 08:41:38;;;;;;;10.03;9.43;;;38.90;33.20;;;;;;4973987;28;21043;-88
2023/06/17 08:44:06;;;;;;;10.40;9.50;;;39.40;29.90;;;;;;4998604;28;20429;-87
2023/06/17 08:46:32;;;;;;;10.93;9.93;;;;;;;;;;4998859;28;20472;-88
2023/06/17 08:48:58;;;;;;;10.60;9.70;;;;;;;;;;4983417;28;20466;-88
2023/06/17 08:51:24;;;;;;;10.40;9.70;;;;;;;;;;5001085;28;20425;-88
2023/06/17 08:53:51;;;;;;;11.03;10.30;;;42.60;26.80;;;;;;5003604;28;20437;-88
2023/06/17 08:56:17;;;;;;;9.67;8.97;;;;;;;;;;4986029;28;20447;-89
2023/06/17 08:58:44;;;;;;;10.50;9.60;;;42.70;26.20;;;;;;4996666;28;20469;-87
2023/06/17 09:01:11;;;;;;;10.70;9.97;;;40.70;27.30;;;;;;4986421;28;20439;-87
2023/06/17 09:03:39;;;;;;;10.73;9.93;;;41.10;27.40;;;;;;4994833;28;20472;-88
2023/06/17 09:06:25;;;;;;;10.50;9.80;;;41.70;30.30;;;;;;4993248;28;20459;-88
2023/06/17 09:08:52;;;;;;;12.03;10.50;;;42.80;29.70;;;;;;4977857;28;20871;-88
2023/06/17 09:11:28;;;;;;;10.77;10.07;;;43.70;26.60;;;;;;4996265;28;20456;-88
2023/06/17 09:13:54;;;;;;;11.30;10.20;;;44.40;25.60;;;;;;4998389;28;21119;-89
2023/06/17 09:16:27;;;;;;;10.83;10.10;;;43.30;25.40;;;;;;4987684;28;20441;-88
2023/06/17 09:18:55;;;;;;;12.37;11.53;;;41.70;25.80;;;;;;4980418;28;20461;-88
2023/06/17 09:21:21;;;;;;;10.10;9.50;;;;;;;;;;5000374;28;20491;-88
2023/06/17 09:24:13;;;;;;;11.07;10.30;;;41.20;26.50;;;;;;5005311;28;20843;-87
2023/06/17 09:26:44;;;;;;;10.23;9.53;;;40.70;27.10;;;;;;5000159;28;20479;-88
2023/06/17 09:29:11;;;;;;;10.00;9.40;;;40.10;27.20;;;;;;4988756;28;20473;-87
2023/06/17 09:31:52;;;;;;;9.10;8.50;;;40.80;26.30;;;;;;4990977;28;20441;-88
2023/06/17 09:34:18;;;;;;;9.73;9.03;;;41.00;27.70;;;;;;5008986;28;20951;-88
2023/06/17 09:36:44;;;;;;;9.87;9.17;;;38.40;28.00;;;;;;5009658;28;20445;-88
2023/06/17 09:39:12;;;;;;;10.03;9.10;;;38.50;27.00;;;;;;4990520;28;20498;-88
2023/06/17 09:41:42;;;;;;;9.40;8.70;;;35.40;27.60;;;;;;4988278;28;20559;-87
2023/06/17 09:44:08;;;;;;;8.40;7.80;;;;;;;;;;5004484;28;20647;-88
2023/06/17 09:46:39;;;;;;;9.83;9.13;;;34.60;30.60;;;;;;4987579;28;20468;-87
2023/06/17 09:49:15;;;;;;;8.97;8.37;;;35.40;29.70;;;;;;4977230;28;20462;-86
2023/06/17 09:51:47;;;;;;;9.53;8.83;;;34.50;30.20;;;;;;5003663;28;20447;-88
2023/06/17 09:54:13;;;;;;;9.60;8.90;;;34.60;28.00;;;;;;5000274;28;20436;-87
2023/06/17 09:56:39;;;;;;;8.63;7.93;;;;;;;;;;4984982;28;20436;-87
2023/06/17 09:59:08;;;;;;;9.60;8.90;;;;;;;;;;4995183;28;20217;-87
2023/06/17 10:01:38;;;;;;;10.40;9.40;;;;;;;;;;5001637;28;20498;-86
2023/06/17 10:04:04;;;;;;;8.57;7.87;;;35.90;26.90;;;;;;4982589;28;20430;-87
2023/06/17 10:06:30;;;;;;;9.10;8.23;;;;;;;;;;5005363;28;20530;-88
2023/06/17 10:08:57;;;;;;;9.00;8.33;;;36.60;25.70;;;;;;5007032;28;20219;-88
2023/06/17 10:11:24;;;;;;;9.77;9.07;;;36.00;26.90;;;;;;5003261;28;20486;-88
2023/06/17 10:13:56;;;;;;;8.50;7.90;;;35.90;26.80;;;;;;4992457;28;21110;-87
2023/06/17 10:16:25;;;;;;;9.70;9.00;;;34.30;26.50;;;;;;5000780;28;20460;-88
2023/06/17 10:18:53;;;;;;;8.83;8.13;;;33.40;27.50;;;;;;5004148;28;21026;-88
2023/06/17 10:21:20;;;;;;;8.13;7.53;;;34.10;27.70;;;;;;4981889;28;20510;-87
2023/06/17 10:23:47;;;;;;;8.10;7.50;;;34.00;27.80;;;;;;4991358;28;21030;-87
2023/06/17 10:26:13;;;;;;;8.70;8.00;;;;;;;;;;5001883;28;20872;-87
2023/06/17 10:28:59;;;;;;;8.80;7.90;;;34.20;26.80;;;;;;4985037;28;20535;-88
2023/06/17 10:31:30;;;;;;;8.07;7.47;;;34.80;28.20;;;;;;5001762;28;20629;-87
2023/06/17 10:34:01;;;;;;;8.20;7.53;;;35.00;28.30;;;;;;4985870;28;20529;-86
2023/06/17 10:36:27;;;;;;;7.90;7.40;;;33.90;28.50;;;;;;5003350;28;20537;-88
2023/06/17 10:39:11;;;;;;;8.50;7.80;;;33.50;29.00;;;;;;4986202;28;20565;-88
2023/06/17 10:41:40;;;;;;;8.97;8.17;;;32.00;30.00;;;;;;4989768;28;20441;-87
2023/06/17 10:44:39;;;;;;;9.43;8.43;;;30.00;31.80;;;;;;4987250;28;20453;-87
2023/06/17 10:47:20;;;;;;;8.37;7.43;;;29.80;33.40;;;;;;5010232;28;20469;-87
2023/06/17 10:49:48;;;;;;;6.70;6.10;;;29.90;34.40;;;;;;5000085;28;20778;-87
2023/06/17 10:52:15;;;;;;;7.10;6.37;;;29.80;34.70;;;;;;5005471;28;21071;-86
2023/06/17 10:54:51;;;;;;;7.17;6.43;;;29.00;34.10;;;;;;5002266;28;20450;-86
2023/06/17 10:57:34;;;;;;;8.40;7.80;;;28.00;36.10;;;;;;5008093;28;20499;-86
2023/06/17 11:00:11;;;;;;;8.30;6.70;;;28.00;37.10;;;;;;4999784;28;20640;-85
2023/06/17 11:02:38;;;;;;;7.97;6.00;;;28.00;35.70;;;;;;4988292;28;20453;-86
2023/06/17 11:05:05;;;;;;;8.33;6.47;;;28.20;36.60;;;;;;5001356;28;20448;-88
2023/06/17 11:07:30;;;;;;;9.90;6.00;;;28.10;37.20;;;;;;5001930;28;20475;-87
2023/06/17 11:09:56;;;;;;;7.10;5.60;;;27.80;37.80;;;;;;4986206;28;20519;-87
2023/06/17 11:12:21;;;;;;;5.80;5.30;;;27.40;37.00;;;;;;4987404;28;20186;-85
2023/06/17 11:14:47;;;;;;;9.53;6.17;;;;;;;;;;5004457;28;20274;-88
2023/06/17 11:17:13;;;;;;;8.40;5.80;;;28.20;37.20;;;;;;4993403;28;20243;-88
2023/06/17 11:19:38;;;;;;;6.33;5.57;;;28.30;37.50;;;;;;5007024;28;20445;-87
2023/06/17 11:22:04;;;;;;;9.03;6.00;;;28.20;36.70;;;;;;5003944;28;20210;-87
2023/06/17 11:24:31;;;;;;;7.60;5.80;;;28.10;35.90;;;;;;5008429;28;20778;-86
2023/06/17 11:26:58;;;;;;;7.30;5.47;;;28.30;34.70;;;;;;4987096;28;20469;-87
2023/06/17 11:29:25;;;;;;;8.67;6.20;;;28.30;35.20;;;;;;4986770;28;20480;-87
2023/06/17 11:31:51;;;;;;;6.40;5.83;;;28.30;35.90;;;;;;5007512;28;20437;-87
2023/06/17 11:34:17;;;;;;;8.13;6.07;;;27.90;35.50;;;;;;5004784;28;20920;-86
2023/06/17 11:36:43;;;;;;;6.30;5.70;;;27.90;35.90;;;;;;4998794;28;20439;-87
2023/06/17 11:39:11;;;;;;;7.90;6.00;;;28.20;35.00;;;;;;4999411;28;20212;-87
2023/06/17 11:41:37;;;;;;;11.17;5.80;;;28.20;35.00;;;;;;5002555;28;20352;-87
2023/06/17 11:44:03;;;;;;;6.40;5.57;;;28.30;33.70;;;;;;5003452;28;20461;-87
2023/06/17 11:46:29;;;;;;;6.33;5.50;;;27.80;34.20;;;;;;5004123;28;20492;-87
2023/06/17 11:48:55;;;;;;;5.50;4.90;;;28.20;35.50;;;;;;4990198;28;20206;-87
2023/06/17 11:51:20;;;;;;;6.90;6.30;;;28.30;36.00;;;;;;4981968;28;20699;-87
2023/06/17 11:53:49;;;;;;;7.20;5.90;;;28.50;35.80;;;;;;5003855;28;20479;-87
2023/06/17 11:56:21;;;;;;;6.23;5.73;;;28.70;35.70;;;;;;5002774;28;20191;-87
2023/06/17 11:58:51;;;;;;;7.30;5.47;;;28.40;35.40;;;;;;4990371;28;20504;-87
2023/06/17 12:01:22;;;;;;;5.57;5.13;;;28.40;36.10;;;;;;5001243;28;20584;-87
2023/06/17 12:03:48;;;;;;;5.90;5.20;;;27.70;35.00;;;;;;4985150;28;21186;-88
2023/06/17 12:06:20;;;;;;;5.40;4.90;;;27.70;36.10;;;;;;5002282;28;20443;-87
2023/06/17 12:08:56;;;;;;;5.97;5.13;;;27.80;35.60;;;;;;4973950;28;20232;-87
2023/06/17 12:11:25;;;;;;;6.90;5.43;;;28.10;35.20;;;;;;4992784;28;22349;-88
2023/06/17 12:13:50;;;;;;;7.83;6.03;;;28.30;33.80;;;;;;4985518;28;20833;-87
2023/06/17 12:16:24;;;;;;;5.77;5.27;;;28.60;34.10;;;;;;4981181;28;20475;-87
2023/06/17 12:18:51;;;;;;;6.60;5.93;;;28.70;33.90;;;;;;4997852;28;20352;-88
2023/06/17 12:21:21;;;;;;;7.83;6.60;;;29.80;31.70;;;;;;4999594;23;20602;-83
2023/06/17 12:23:49;;;;;;;6.77;5.70;;;29.80;32.20;;;;;;4981037;28;20450;-84
2023/06/17 12:26:15;;;;;;;6.43;5.60;;;29.90;32.80;;;;;;4980658;28;20418;-87
2023/06/17 12:28:40;;;;;;;8.90;6.83;;;29.40;32.40;;;;;;4998069;28;20470;-84
2023/06/17 12:31:06;;;;;;;9.57;6.53;;;29.00;33.20;;;;;;5001157;28;20465;-86
2023/06/17 12:33:32;;;;;;;6.90;6.20;;;28.80;34.00;;;;;;4985407;28;20175;-86
2023/06/17 12:35:58;;;;;;;7.30;6.37;;;28.40;34.70;;;;;;4985525;28;20259;-85
2023/06/17 12:38:28;;;;;;;7.23;6.53;;;28.10;34.60;;;;;;4985236;28;20178;-85
2023/06/17 12:40:54;;;;;;;8.30;7.50;;;28.50;35.40;;;;;;5002615;28;20443;-84
2023/06/17 12:43:20;;;;;;;6.87;6.10;;;;;;;;;;5001492;28;20410;-87
2023/06/17 12:45:45;;;;;;;8.23;6.10;;;28.60;33.80;;;;;;4984810;28;20183;-89
2023/06/17 12:48:12;;;;;;;6.17;5.63;;;28.70;34.80;;;;;;5001446;28;20459;-86
2023/06/17 12:50:37;;;;;;;7.97;6.40;;;28.20;34.50;;;;;;5001676;28;20206;-85
2023/06/17 12:53:03;;;;;;;8.40;6.03;;;27.60;34.90;;;;;;4999743;28;20407;-85
2023/06/17 12:55:28;;;;;;;7.80;6.07;;;28.00;34.90;;;;;;4984464;28;20186;-83
2023/06/17 12:57:54;;;;;;;6.67;5.97;;;27.70;35.20;;;;;;5001468;28;20546;-80
2023/06/17 13:00:19;;;;;;;7.67;6.70;;;27.70;35.70;;;;;;5001076;28;20257;-86